Time;durP1;ratioP1;P1;durP2;ratioP2;P2;SDS_P1;SDS_P2;PMS_P1;PMS_P2;Temp;Humidity;BMP_temperature;BMP_pressure;BME280_temperature;BME280_humidity;BME280_pressure;Samples;Min_cycle;Max_cycle;Signal;HPM_P1;HPM_P2
2022/10/30 00:00:41;;;;;;;0.90;0.90;;;;;;;13.92;46.41;95894.75;5110842;28;21032;-63
2022/10/30 00:03:12;;;;;;;1.57;1.00;;;;;;;14.16;46.34;95895.22;5108963;28;20441;-65
2022/10/30 00:05:42;;;;;;;2.93;1.60;;;;;;;13.49;47.71;95894.91;5100137;27;20456;-65
2022/10/30 00:08:10;;;;;;;1.27;1.17;;;;;;;13.79;46.99;95891.78;5094311;28;20531;-61
2022/10/30 00:10:37;;;;;;;0.60;0.60;;;;;;;13.84;47.06;95889.16;5105044;28;21142;-63
2022/10/30 00:13:04;;;;;;;2.03;0.77;;;;;;;14.01;46.11;95892.47;5110985;28;20535;-65
2022/10/30 00:15:32;;;;;;;0.77;0.77;;;;;;;13.86;46.38;95895.78;5098276;28;20536;-69
2022/10/30 00:17:59;;;;;;;1.43;1.33;;;;;;;13.83;46.30;95895.50;5092029;28;20449;-63
2022/10/30 00:20:26;;;;;;;1.30;1.20;;;;;;;13.80;46.41;95895.97;5097077;28;20433;-62
2022/10/30 00:22:53;;;;;;;0.87;0.60;;;;;;;13.95;46.60;95894.28;5107602;28;20446;-62
2022/10/30 00:25:21;;;;;;;0.40;0.40;;;;;;;14.07;46.69;95886.19;5103907;28;20444;-65
2022/10/30 00:27:47;;;;;;;1.00;0.90;;;;;;;14.01;45.76;95892.47;5101016;28;20433;-65
2022/10/30 00:30:15;;;;;;;0.37;0.37;;;;;;;13.92;46.49;95889.50;5103092;28;20475;-65
2022/10/30 00:32:42;;;;;;;2.60;2.03;;;;;;;13.92;46.34;95888.72;5090544;28;20433;-63
2022/10/30 00:35:10;;;;;;;31.10;1.70;;;;;;;13.94;46.10;95887.41;5074688;28;20449;-68
2022/10/30 00:37:37;;;;;;;0.77;0.77;;;;;;;13.90;45.83;95891.59;5101290;28;20773;-63
2022/10/30 00:40:05;;;;;;;0.40;0.40;;;;;;;13.77;46.33;95880.69;5096138;28;20531;-65
2022/10/30 00:42:32;;;;;;;3.77;1.43;;;;;;;13.86;45.97;95889.72;5095619;28;20444;-63
2022/10/30 00:44:59;;;;;;;0.37;0.37;;;;;;;13.78;46.31;95890.16;5088046;28;20466;-64
2022/10/30 00:47:33;;;;;;;2.93;2.17;;;;;;;13.75;46.06;95878.31;5103805;28;20571;-64
2022/10/30 00:50:09;;;;;;;0.40;0.40;;;;;;;13.81;45.50;95892.31;5110487;28;20455;-63
2022/10/30 00:52:41;;;;;;;2.27;2.13;;;;;;;13.71;46.50;95890.38;5088913;28;20610;-62
2022/10/30 00:55:12;;;;;;;0.40;0.40;;;;;;;13.75;46.49;95888.03;5090306;28;20441;-62
2022/10/30 00:57:40;;;;;;;0.93;0.83;;;;;;;13.58;46.48;95890.78;5102352;28;21289;-67
2022/10/30 01:00:10;;;;;;;5.07;2.63;;;;;;;13.68;46.30;95882.19;5097659;28;20811;-66
2022/10/30 01:02:39;;;;;;;1.70;1.57;;;;;;;13.39;47.06;95883.50;5101653;28;20443;-64
2022/10/30 01:05:06;;;;;;;5.47;2.13;;;;;;;13.46;46.52;95884.91;5100876;28;20447;-62
2022/10/30 01:07:34;;;;;;;1.03;1.03;;;;;;;13.41;46.42;95881.41;5110492;28;20437;-63
2022/10/30 01:10:02;;;;;;;7.53;1.50;;;;;;;13.38;46.28;95871.34;5099539;28;20429;-65
2022/10/30 01:12:29;;;;;;;1.50;1.37;;;;;;;13.23;46.43;95863.34;5093890;28;20454;-63
2022/10/30 01:14:59;;;;;;;1.27;1.17;;;;;;;13.28;46.50;95861.56;5088187;28;20515;-66
2022/10/30 01:17:44;;;;;;;0.40;0.40;;;;;;;13.15;46.62;95857.47;5101466;28;20975;-65
2022/10/30 01:20:21;;;;;;;2.73;1.03;;;;;;;13.19;46.79;95858.53;5098192;28;20456;-66
2022/10/30 01:23:14;;;;;;;1.67;1.57;;;;;;;13.19;46.65;95849.88;5105006;28;20540;-66
2022/10/30 01:26:14;;;;;;;1.00;1.00;;;;;;;13.16;46.82;95853.78;5088671;28;20440;-68
2022/10/30 01:29:18;;;;;;;2.63;1.60;;;;;;;13.17;46.88;95855.38;5078380;28;20448;-67
2022/10/30 01:31:49;;;;;;;0.60;0.60;;;;;;;13.26;46.92;95852.31;5097948;28;20866;-65
2022/10/30 01:34:20;;;;;;;0.37;0.37;;;;;;;13.32;46.52;95851.31;5096960;28;20441;-63
2022/10/30 01:37:00;;;;;;;0.83;0.83;;;;;;;13.34;46.71;95857.91;5093086;28;20445;-66
2022/10/30 01:39:34;;;;;;;2.10;0.50;;;;;;;13.52;46.31;95851.50;5087701;28;20452;-67
2022/10/30 01:42:38;;;;;;;0.50;0.50;;;;;;;13.60;46.64;95848.41;5096284;28;20986;-63
2022/10/30 01:45:06;;;;;;;0.53;0.53;;;;;;;13.57;46.18;95838.38;5090542;28;20917;-66
2022/10/30 01:47:52;;;;;;;1.63;1.53;;;;;;;13.56;46.16;95839.41;5096543;28;20533;-62
2022/10/30 01:50:52;;;;;;;2.80;1.53;;;;;;;13.43;46.07;95845.09;5087110;28;20510;-67
2022/10/30 01:53:26;;;;;;;3.67;2.40;;;;;;;12.39;49.27;95847.06;5089848;28;20453;-64
2022/10/30 01:55:59;;;;;;;0.10;0.10;;;;;;;11.69;51.22;95856.53;5093570;28;20436;-64
2022/10/30 01:58:49;;;;;;;0.53;0.53;;;;;;;12.54;49.08;95849.88;5095405;28;20445;-60
2022/10/30 02:01:17;;;;;;;0.80;0.80;;;;;;;12.52;48.73;95845.94;5083445;28;20444;-66
2022/10/30 02:03:46;;;;;;;0.20;0.20;;;;;;;11.83;50.81;95845.47;5104102;28;21053;-64
2022/10/30 02:06:13;;;;;;;1.50;1.40;;;;;;;12.42;49.37;95846.59;5099279;28;20843;-63
2022/10/30 02:08:40;;;;;;;1.00;0.83;;;;;;;12.68;48.27;95837.94;5089386;28;20487;-65
2022/10/30 02:11:09;;;;;;;0.30;0.30;;;;;;;12.64;48.38;95839.50;5090514;28;20555;-65
2022/10/30 02:13:40;;;;;;;0.80;0.80;;;;;;;12.97;47.53;95841.19;5088252;28;20981;-64
2022/10/30 02:16:08;;;;;;;2.33;0.50;;;;;;;12.98;47.07;95827.78;5091176;28;20436;-64
2022/10/30 02:18:35;;;;;;;0.10;0.10;;;;;;;12.99;46.86;95839.88;5097555;28;20441;-64
2022/10/30 02:21:03;;;;;;;1.73;1.60;;;;;;;12.92;47.39;95836.66;5103270;28;20440;-64
2022/10/30 02:23:30;;;;;;;0.10;0.10;;;;;;;13.03;47.22;95833.13;5099078;28;20446;-63
2022/10/30 02:25:56;;;;;;;0.33;0.33;;;;;;;12.97;47.36;95828.81;5099918;28;20448;-65
2022/10/30 02:28:25;;;;;;;0.77;0.73;;;;;;;12.87;47.33;95831.34;5097819;28;20436;-64
2022/10/30 02:30:53;;;;;;;1.97;1.07;;;;;;;12.67;48.23;95831.13;5088171;28;20897;-66
2022/10/30 02:33:20;;;;;;;3.93;0.63;;;;;;;12.62;47.79;95831.06;5092135;28;20467;-62
2022/10/30 02:35:47;;;;;;;1.03;1.03;;;;;;;12.83;48.00;95835.50;5097143;28;20459;-65
2022/10/30 02:38:14;;;;;;;0.63;0.63;;;;;;;12.27;49.00;95835.88;5091985;28;20450;-66
2022/10/30 02:40:41;;;;;;;0.30;0.30;;;;;;;11.57;50.95;95837.41;5096917;28;20514;-66
2022/10/30 02:43:07;;;;;;;0.20;0.20;;;;;;;11.73;50.30;95844.53;5087301;28;20449;-67
2022/10/30 02:45:34;;;;;;;0.57;0.57;;;;;;;12.17;49.30;95833.88;5099798;28;20509;-65
2022/10/30 02:48:02;;;;;;;0.30;0.30;;;;;;;12.16;49.45;95836.75;5102600;28;20479;-64
2022/10/30 02:50:30;;;;;;;1.20;1.03;;;;;;;12.32;49.26;95838.53;5086682;28;20449;-65
2022/10/30 02:52:58;;;;;;;0.30;0.30;;;;;;;11.64;50.80;95848.56;5095307;28;20490;-65
2022/10/30 02:55:26;;;;;;;2.30;1.63;;;;;;;11.61;51.50;95849.81;5092557;28;20453;-66
2022/10/30 02:57:53;;;;;;;27.27;3.33;;;;;;;12.03;50.04;95830.00;5098758;28;20959;-66
2022/10/30 03:00:21;;;;;;;1.33;1.17;;;;;;;12.10;50.07;95845.59;5097829;28;20444;-65
2022/10/30 03:02:53;;;;;;;0.57;0.57;;;;;;;12.28;49.74;95845.31;5086874;28;20433;-67
2022/10/30 03:05:21;;;;;;;1.17;0.77;;;;;;;12.19;49.18;95820.50;5093919;28;20488;-67
2022/10/30 03:07:48;;;;;;;6.63;1.37;;;;;;;12.11;49.92;95855.09;5090622;28;20536;-62
2022/10/30 03:10:15;;;;;;;0.50;0.50;;;;;;;12.43;49.20;95853.41;5113006;28;20536;-65
2022/10/30 03:12:41;;;;;;;1.70;1.60;;;;;;;12.51;48.68;95860.91;5105061;28;20479;-65
2022/10/30 03:15:09;;;;;;;0.67;0.67;;;;;;;12.48;48.07;95840.31;5097511;28;20440;-62
2022/10/30 03:17:35;;;;;;;0.83;0.83;;;;;;;12.64;47.76;95865.81;5090115;28;20452;-68
2022/10/30 03:20:02;;;;;;;0.20;0.20;;;;;;;12.47;48.00;95864.25;5095583;28;20449;-64
2022/10/30 03:22:29;;;;;;;3.07;2.37;;;;;;;12.65;47.96;95863.94;5103317;28;21189;-62
2022/10/30 03:24:56;;;;;;;0.10;0.10;;;;;;;12.54;47.92;95857.78;5093966;28;20441;-64
2022/10/30 03:27:23;;;;;;;0.20;0.20;;;;;;;12.29;48.68;95854.81;5098827;28;20569;-65
2022/10/30 03:29:50;;;;;;;0.40;0.40;;;;;;;11.79;50.18;95857.50;5096881;28;20432;-63
2022/10/30 03:32:16;;;;;;;0.10;0.10;;;;;;;11.52;50.38;95847.81;5099525;28;20487;-61
2022/10/30 03:34:49;;;;;;;1.60;1.40;;;;;;;11.57;49.86;95856.56;5094969;28;20432;-65
2022/10/30 03:37:17;;;;;;;0.20;0.20;;;;;;;11.78;49.65;95849.84;5106073;28;20436;-65
2022/10/30 03:39:44;;;;;;;0.70;0.70;;;;;;;11.98;49.24;95855.41;5092986;28;20488;-67
2022/10/30 03:42:11;;;;;;;0.40;0.40;;;;;;;12.19;48.78;95858.09;5091162;28;20452;-63
2022/10/30 03:44:39;;;;;;;0.40;0.40;;;;;;;12.28;48.59;95855.84;5089627;28;20433;-68
2022/10/30 03:47:06;;;;;;;0.53;0.53;;;;;;;12.32;48.35;95853.53;5101438;28;20476;-65
2022/10/30 03:49:38;;;;;;;1.30;1.20;;;;;;;12.48;48.28;95853.47;5099329;28;20524;-62
2022/10/30 03:52:09;;;;;;;0.60;0.60;;;;;;;12.41;48.10;95860.75;5091787;28;20918;-64
2022/10/30 03:54:36;;;;;;;3.30;0.80;;;;;;;12.45;47.90;95850.53;5101510;28;20441;-64
2022/10/30 03:57:03;;;;;;;4.00;0.97;;;;;;;12.41;47.65;95850.22;5097613;28;21140;-67
2022/10/30 03:59:39;;;;;;;0.10;0.10;;;;;;;12.24;48.24;95844.25;5097257;28;20436;-65
2022/10/30 04:02:26;;;;;;;0.17;0.17;;;;;;;12.42;47.67;95846.59;5111138;28;20440;-64
2022/10/30 04:04:53;;;;;;;2.40;1.97;;;;;;;12.46;47.30;95842.44;5106339;28;20441;-62
2022/10/30 04:07:19;;;;;;;0.30;0.30;;;;;;;12.15;47.65;95824.69;5100601;28;20452;-63
2022/10/30 04:09:46;;;;;;;1.80;1.70;;;;;;;12.29;47.88;95838.25;5089077;28;20441;-62
2022/10/30 04:12:13;;;;;;;1.93;1.83;;;;;;;12.31;47.92;95838.78;5104835;28;21110;-63
2022/10/30 04:14:40;;;;;;;1.60;1.13;;;;;;;12.19;47.76;95841.53;5101655;28;20509;-64
2022/10/30 04:17:07;;;;;;;1.03;1.03;;;;;;;12.08;47.71;95845.03;5099861;28;20469;-66
2022/10/30 04:19:39;;;;;;;0.73;0.50;;;;;;;12.09;47.71;95846.66;5107577;28;20448;-66
2022/10/30 04:22:06;;;;;;;0.10;0.10;;;;;;;11.95;47.93;95848.03;5098175;28;20520;-63
2022/10/30 04:24:34;;;;;;;1.23;1.17;;;;;;;12.04;47.40;95847.34;5094717;28;20448;-66
2022/10/30 04:27:01;;;;;;;3.50;2.27;;;;;;;12.16;47.37;95844.66;5100480;28;20465;-63
2022/10/30 04:29:28;;;;;;;4.60;4.17;;;;;;;12.12;47.25;95844.34;5095565;28;20451;-62
2022/10/30 04:31:55;;;;;;;3.10;2.80;;;;;;;12.09;47.50;95836.94;5110581;28;20866;-60
2022/10/30 04:34:21;;;;;;;2.43;2.33;;;;;;;12.03;47.47;95837.09;5095307;28;20514;-64
2022/10/30 04:36:48;;;;;;;7.07;5.77;;;;;;;11.96;47.60;95847.78;5088771;28;20822;-66
2022/10/30 04:39:15;;;;;;;5.20;4.60;;;;;;;11.74;47.83;95844.28;5101129;28;20445;-63
2022/10/30 04:41:43;;;;;;;5.03;3.93;;;;;;;11.76;47.50;95851.91;5092760;28;20536;-66
2022/10/30 04:44:17;;;;;;;8.20;4.53;;;;;;;11.74;47.79;95854.78;5088364;28;20460;-67
2022/10/30 04:46:44;;;;;;;2.97;2.77;;;;;;;11.52;48.01;95845.19;5090065;28;20473;-64
2022/10/30 04:49:11;;;;;;;1.93;1.83;;;;;;;11.69;47.92;95853.91;5092531;28;20444;-62
2022/10/30 04:51:38;;;;;;;3.20;2.97;;;;;;;11.59;48.28;95858.97;5096799;28;20480;-70
2022/10/30 04:54:06;;;;;;;2.20;2.00;;;;;;;11.76;47.70;95857.19;5102772;28;20956;-63
2022/10/30 04:56:36;;;;;;;1.00;1.00;;;;;;;11.37;48.23;95864.09;5089046;28;20433;-63
2022/10/30 04:59:03;;;;;;;8.30;4.27;;;;;;;10.44;50.50;95857.63;5093719;28;20514;-65
2022/10/30 05:01:30;;;;;;;2.60;2.50;;;;;;;10.84;50.05;95858.41;5088308;28;20904;-61
2022/10/30 05:03:58;;;;;;;4.60;4.20;;;;;;;10.91;49.69;95865.09;5096971;28;20476;-66
2022/10/30 05:06:29;;;;;;;5.80;3.37;;;;;;;11.34;48.50;95855.91;5102226;28;20514;-64
2022/10/30 05:08:56;;;;;;;1.77;1.67;;;;;;;11.47;48.28;95858.25;5095148;28;20463;-65
2022/10/30 05:11:31;;;;;;;2.80;2.60;;;;;;;11.47;48.06;95863.50;5088098;28;20476;-63
2022/10/30 05:13:58;;;;;;;2.77;2.57;;;;;;;11.54;47.86;95853.63;5094836;28;20457;-64
2022/10/30 05:16:25;;;;;;;4.33;2.93;;;;;;;11.72;47.27;95869.19;5088096;28;20482;-66
2022/10/30 05:18:53;;;;;;;2.83;2.60;;;;;;;11.41;47.96;95853.94;5089893;28;20495;-65
2022/10/30 05:21:20;;;;;;;5.37;3.47;;;;;;;11.73;47.41;95876.03;5088315;28;20449;-64
2022/10/30 05:23:47;;;;;;;5.63;3.93;;;;;;;11.82;48.05;95871.97;5096735;28;20559;-66
2022/10/30 05:26:15;;;;;;;10.37;3.47;;;;;;;11.67;47.63;95874.34;5091031;28;20896;-65
2022/10/30 05:28:41;;;;;;;3.40;3.20;;;;;;;11.72;47.60;95869.19;5088169;28;20606;-67
2022/10/30 05:31:08;;;;;;;23.83;7.70;;;;;;;11.79;47.67;95867.19;5088320;28;20441;-67
2022/10/30 05:33:54;;;;;;;2.43;2.27;;;;;;;11.75;48.03;95871.34;5098509;28;20440;-65
2022/10/30 05:36:22;;;;;;;3.23;2.93;;;;;;;11.71;48.13;95875.47;5103644;28;20468;-65
2022/10/30 05:38:49;;;;;;;2.30;2.20;;;;;;;11.88;48.33;95881.50;5088139;28;20434;-65
2022/10/30 05:41:27;;;;;;;2.13;1.60;;;;;;;11.98;47.71;95876.44;5089876;28;20444;-61
2022/10/30 05:43:54;;;;;;;10.30;5.13;;;;;;;12.07;47.61;95869.72;5091843;28;20449;-62
2022/10/30 05:46:21;;;;;;;3.43;2.97;;;;;;;12.07;48.11;95864.47;5086802;28;20564;-66
2022/10/30 05:48:48;;;;;;;7.33;3.23;;;;;;;12.12;47.97;95872.44;5095728;28;20448;-65
2022/10/30 05:51:16;;;;;;;2.00;1.83;;;;;;;12.19;48.12;95875.69;5087186;28;21057;-67
2022/10/30 05:53:50;;;;;;;4.03;3.43;;;;;;;12.32;47.60;95870.09;5097037;28;20434;-68
2022/10/30 05:56:19;;;;;;;0.87;0.87;;;;;;;12.35;47.87;95867.00;5086074;28;20502;-68
2022/10/30 05:59:04;;;;;;;2.23;2.07;;;;;;;12.29;47.96;95857.44;5094357;28;20512;-64
2022/10/30 06:01:31;;;;;;;0.90;0.90;;;;;;;12.45;47.89;95864.50;5092000;28;20437;-65
2022/10/30 06:04:02;;;;;;;1.77;1.67;;;;;;;12.45;48.38;95859.22;5098663;27;20455;-67
2022/10/30 06:06:31;;;;;;;1.60;1.50;;;;;;;12.64;47.94;95859.75;5093063;28;21121;-64
2022/10/30 06:08:58;;;;;;;1.63;1.53;;;;;;;12.93;47.07;95861.94;5108182;28;20456;-69
2022/10/30 06:11:52;;;;;;;2.13;1.77;;;;;;;12.83;47.58;95859.19;5098429;28;20481;-67
2022/10/30 06:14:27;;;;;;;2.37;2.17;;;;;;;13.02;47.39;95862.28;5085046;28;20511;-62
2022/10/30 06:16:54;;;;;;;2.47;2.27;;;;;;;12.92;47.80;95870.06;5099268;27;20439;-65
2022/10/30 06:19:39;;;;;;;6.53;2.70;;;;;;;12.89;47.82;95860.84;5087079;28;20440;-62
2022/10/30 06:22:25;;;;;;;0.53;0.53;;;;;;;12.92;48.07;95862.97;5112658;27;20443;-64
2022/10/30 06:24:58;;;;;;;0.70;0.70;;;;;;;13.20;46.86;95854.09;5088250;28;20491;-66
2022/10/30 06:27:39;;;;;;;3.93;1.20;;;;;;;13.02;48.17;95857.03;5094289;28;20441;-65
2022/10/30 06:30:06;;;;;;;1.53;1.37;;;;;;;13.00;48.49;95865.16;5089083;28;20787;-68
2022/10/30 06:32:33;;;;;;;1.43;1.33;;;;;;;12.61;49.62;95861.00;5105061;28;21120;-65
2022/10/30 06:35:01;;;;;;;0.67;0.67;;;;;;;13.05;48.78;95862.63;5089288;28;21137;-67
2022/10/30 06:37:29;;;;;;;2.53;2.33;;;;;;;12.89;48.87;95873.19;5104767;28;20538;-64
2022/10/30 06:39:59;;;;;;;0.70;0.70;;;;;;;12.35;50.64;95869.63;5091335;28;20447;-65
2022/10/30 06:42:50;;;;;;;1.37;1.27;;;;;;;12.33;51.08;95869.06;5089977;28;20517;-66
2022/10/30 06:45:40;;;;;;;0.17;0.17;;;;;;;12.50;50.28;95869.81;5093762;28;20446;-66
2022/10/30 06:48:08;;;;;;;0.53;0.53;;;;;;;12.86;49.16;95863.97;5088240;28;20444;-62
2022/10/30 06:50:39;;;;;;;0.87;0.87;;;;;;;13.25;48.16;95853.34;5095583;28;20984;-65
2022/10/30 06:53:07;;;;;;;0.50;0.50;;;;;;;12.91;49.46;95871.91;5095844;28;20987;-69
2022/10/30 06:55:33;;;;;;;0.43;0.43;;;;;;;12.91;50.23;95879.81;5096702;28;20433;-66
2022/10/30 06:58:19;;;;;;;0.27;0.27;;;;;;;12.58;50.87;95866.75;5088067;28;21210;-63
2022/10/30 07:00:52;;;;;;;5.43;2.83;;;;;;;13.77;48.18;95873.59;5102897;28;20463;-63
2022/10/30 07:03:38;;;;;;;0.97;0.97;;;;;;;14.25;46.52;95873.41;5106677;28;20491;-65
2022/10/30 07:06:05;;;;;;;2.00;0.83;;;;;;;13.21;49.38;95872.25;5096578;27;20464;-63
2022/10/30 07:08:32;;;;;;;2.97;2.00;;;;;;;13.69;48.22;95871.41;5096170;28;20437;-65
2022/10/30 07:11:00;;;;;;;1.20;1.13;;;;;;;13.62;48.53;95867.38;5093888;27;21260;-65
2022/10/30 07:13:32;;;;;;;1.93;1.10;;;;;;;13.64;48.50;95867.94;5098227;28;20523;-66
2022/10/30 07:16:21;;;;;;;3.43;1.60;;;;;;;13.51;49.39;95870.97;5100166;27;20444;-60
2022/10/30 07:18:50;;;;;;;0.73;0.70;;;;;;;13.51;48.69;95866.50;5109017;28;20451;-65
2022/10/30 07:21:17;;;;;;;0.83;0.73;;;;;;;13.76;49.09;95863.28;5095612;27;20440;-60
2022/10/30 07:23:44;;;;;;;4.17;2.73;;;;;;;13.98;48.05;95850.81;5096337;28;20862;-63
2022/10/30 07:26:38;;;;;;;1.83;1.53;;;;;;;14.21;48.80;95861.00;5095806;27;20639;-63
2022/10/30 07:29:28;;;;;;;6.63;3.47;;;;;;;14.00;47.80;95844.25;5094904;28;20755;-66
2022/10/30 07:32:31;;;;;;;1.50;1.37;;;;;;;14.21;47.83;95845.19;5106061;28;20479;-65
2022/10/30 07:35:18;;;;;;;1.33;1.23;;;;;;;14.74;47.73;95844.16;5111228;28;20970;-63
2022/10/30 07:38:10;;;;;;;1.17;1.07;;;;;;;14.89;47.16;95852.13;5110917;27;21017;-61
2022/10/30 07:40:43;;;;;;;2.10;1.90;;;;;;;14.89;49.97;95858.19;5095997;28;20451;-61
2022/10/30 07:43:27;;;;;;;0.20;0.20;;;;;;;14.98;48.24;95843.44;5099902;28;20980;-61
2022/10/30 07:46:20;;;;;;;1.27;1.10;;;;;;;14.93;47.49;95843.44;5110647;28;20483;-60
2022/10/30 07:49:04;;;;;;;1.50;1.10;;;;;;;15.27;47.32;95841.94;5109920;28;20444;-63
2022/10/30 07:51:40;;;;;;;1.33;1.23;;;;;;;15.38;47.85;95841.97;5100733;27;20828;-62
2022/10/30 07:54:08;;;;;;;1.00;1.00;;;;;;;15.50;47.10;95834.59;5108345;27;20436;-62
2022/10/30 07:56:36;;;;;;;2.93;2.40;;;;;;;16.14;45.40;95833.00;5100140;28;20424;-61
2022/10/30 07:59:23;;;;;;;2.07;1.97;;;;;;;16.24;45.22;95827.69;5096035;28;21123;-66
2022/10/30 08:02:01;;;;;;;9.37;5.23;;;;;;;16.87;43.64;95813.75;5104718;27;20436;-62
2022/10/30 08:04:41;;;;;;;1.47;1.37;;;;;;;16.91;43.98;95817.47;5109509;28;21134;-62
2022/10/30 08:07:32;;;;;;;0.97;0.97;;;;;;;17.04;43.71;95816.84;5109405;28;20966;-62
2022/10/30 08:09:59;;;;;;;0.90;0.90;;;;;;;17.46;42.70;95807.59;5099917;28;20554;-62
2022/10/30 08:12:26;;;;;;;3.10;2.90;;;;;;;17.14;44.27;95810.69;5096372;28;20569;-62
2022/10/30 08:14:53;;;;;;;6.57;5.00;;;;;;;17.48;44.47;95787.72;5097779;28;20780;-61
2022/10/30 08:17:20;;;;;;;2.37;2.23;;;;;;;17.44;43.69;95799.13;5100756;28;20495;-64
2022/10/30 08:19:48;;;;;;;1.07;0.97;;;;;;;17.95;43.26;95795.03;5099697;28;20444;-66
2022/10/30 08:22:16;;;;;;;0.70;0.70;;;;;;;17.64;42.98;95793.69;5101290;27;20771;-63
2022/10/30 08:24:48;;;;;;;6.80;2.03;;;;;;;17.62;43.91;95791.34;5099491;28;20496;-67
2022/10/30 08:27:15;;;;;;;1.13;1.13;;;;;;;17.39;43.74;95781.38;5089452;28;20453;-65
2022/10/30 08:29:42;;;;;;;0.70;0.70;;;;;;;17.88;42.86;95790.03;5105999;28;20437;-61
2022/10/30 08:32:09;;;;;;;1.13;1.03;;;;;;;18.33;42.17;95786.16;5100876;27;20488;-63
2022/10/30 08:34:54;;;;;;;0.90;0.90;;;;;;;18.28;42.85;95794.19;5102346;28;22390;-63
2022/10/30 08:37:21;;;;;;;4.00;0.90;;;;;;;17.96;43.73;95791.28;5103056;28;20468;-59
2022/10/30 08:39:48;;;;;;;0.70;0.70;;;;;;;18.53;42.15;95782.50;5101252;27;20437;-62
2022/10/30 08:42:33;;;;;;;0.63;0.63;;;;;;;18.10;43.03;95792.25;5084609;28;20832;-60
2022/10/30 08:45:05;;;;;;;1.07;1.00;;;;;;;18.65;42.41;95794.28;5099071;28;20521;-63
2022/10/30 08:47:58;;;;;;;2.10;1.90;;;;;;;18.59;41.90;95787.50;5105941;28;20472;-56
2022/10/30 08:50:27;;;;;;;5.10;4.70;;;;;;;19.41;41.17;95775.50;5098505;28;20441;-65
2022/10/30 08:52:54;;;;;;;2.23;1.77;;;;;;;19.94;40.35;95778.63;5103504;28;20632;-65
2022/10/30 08:55:21;;;;;;;2.10;1.97;;;;;;;19.41;40.38;95753.44;5109954;28;20455;-64
2022/10/30 08:57:48;;;;;;;2.63;1.53;;;;;;;19.14;40.83;95781.44;5108290;27;20440;-63
2022/10/30 09:00:15;;;;;;;1.77;1.67;;;;;;;19.85;39.95;95772.41;5105592;28;20441;-63
2022/10/30 09:03:02;;;;;;;1.27;1.20;;;;;;;19.57;40.55;95776.06;5095603;28;20441;-63
2022/10/30 09:05:45;;;;;;;1.43;1.03;;;;;;;19.74;40.19;95755.81;5091417;28;20452;-63
2022/10/30 09:08:30;;;;;;;2.70;2.33;;;;;;;20.37;39.68;95758.72;5099983;27;20977;-67
2022/10/30 09:11:21;;;;;;;3.60;2.13;;;;;;;20.61;38.88;95756.63;5088434;28;20456;-63
2022/10/30 09:13:47;;;;;;;0.97;0.97;;;;;;;20.68;38.50;95757.03;5103477;27;21035;-66
2022/10/30 09:16:15;;;;;;;1.40;1.23;;;;;;;20.18;38.24;95752.69;5088241;28;20460;-62
2022/10/30 09:18:42;;;;;;;3.00;2.73;;;;;;;20.41;38.67;95746.38;5104143;28;20445;-66
2022/10/30 09:21:09;;;;;;;0.53;0.53;;;;;;;20.17;39.83;95745.78;5102855;28;20459;-61
2022/10/30 09:23:44;;;;;;;1.43;1.33;;;;;;;20.23;39.65;95749.94;5107040;28;20900;-63
2022/10/30 09:26:29;;;;;;;2.60;2.13;;;;;;;20.66;39.47;95745.88;5109151;28;20443;-62
2022/10/30 09:29:09;;;;;;;0.53;0.53;;;;;;;21.02;38.75;95735.28;5094863;28;20453;-60
2022/10/30 09:31:43;;;;;;;2.50;1.87;;;;;;;21.10;38.58;95722.03;5089760;27;20456;-66
2022/10/30 09:34:14;;;;;;;2.43;2.23;;;;;;;21.84;37.64;95735.75;5095538;28;20488;-66
2022/10/30 09:36:48;;;;;;;2.33;1.43;;;;;;;21.47;37.70;95728.09;5102094;27;20826;-63
2022/10/30 09:39:16;;;;;;;4.40;2.03;;;;;;;20.95;38.54;95727.66;5106942;28;20685;-60
2022/10/30 09:41:50;;;;;;;1.70;1.30;;;;;;;21.90;37.55;95719.31;5102274;27;20474;-66
2022/10/30 09:44:48;;;;;;;0.93;0.87;;;;;;;21.03;38.82;95724.34;5092536;28;20228;-68
2022/10/30 09:47:54;;;;;;;7.83;4.40;;;;;;;21.78;37.59;95702.25;5092559;28;20234;-63
2022/10/30 09:50:39;;;;;;;3.67;2.73;;;;;;;21.88;36.59;95704.69;5093024;28;20202;-61
2022/10/30 09:53:10;;;;;;;1.73;1.63;;;;;;;22.38;35.82;95698.00;5097607;28;20218;-61
2022/10/30 09:55:54;;;;;;;0.90;0.90;;;;;;;22.63;36.10;95699.97;5097777;28;20205;-63
2022/10/30 09:58:34;;;;;;;2.47;1.87;;;;;;;22.66;36.17;95694.00;5095646;28;20240;-63
2022/10/30 10:01:15;;;;;;;1.73;1.40;;;;;;;23.02;35.82;95686.50;5095440;28;20202;-60
2022/10/30 10:04:03;;;;;;;0.90;0.90;;;;;;;22.28;36.67;95684.91;5098658;27;20261;-63
2022/10/30 10:06:59;;;;;;;1.03;1.00;;;;;;;22.72;36.15;95682.06;5097120;28;20207;-62
2022/10/30 10:09:54;;;;;;;1.33;1.23;;;;;;;23.21;35.67;95672.03;5091509;28;20604;-68
2022/10/30 10:12:46;;;;;;;41.60;15.77;;;;;;;23.51;34.98;95663.03;5100592;28;20263;-70
2022/10/30 10:15:16;;;;;;;151.57;80.07;;;;;;;23.67;34.55;95658.75;5109439;28;20251;-64
2022/10/30 10:17:45;;;;;;;44.10;17.50;;;;;;;23.47;33.15;95643.38;5097070;28;20270;-63
2022/10/30 10:20:40;;;;;;;42.00;20.57;;;;;;;23.71;34.11;95648.97;5091536;28;20726;-66
2022/10/30 10:23:17;;;;;;;50.67;34.80;;;;;;;24.07;33.29;95636.75;5108851;28;20201;-62
2022/10/30 10:25:52;;;;;;;22.33;17.73;;;;;;;23.69;32.96;95635.91;5098408;28;20229;-66
2022/10/30 10:28:39;;;;;;;3.50;2.07;;;;;;;24.03;32.13;95629.69;5101789;28;20190;-68
2022/10/30 10:31:20;;;;;;;6.23;4.47;;;;;;;24.25;32.37;95620.59;5099077;28;20194;-61
2022/10/30 10:34:16;;;;;;;3.10;2.83;;;;;;;23.72;33.93;95621.91;5110381;28;20254;-64
2022/10/30 10:37:07;;;;;;;1.33;1.20;;;;;;;24.03;33.03;95627.03;5101376;28;20198;-66
2022/10/30 10:39:49;;;;;;;6.53;1.03;;;;;;;23.68;32.99;95620.19;5109477;28;20251;-65
2022/10/30 10:42:41;;;;;;;1.80;1.63;;;;;;;24.06;33.00;95618.34;5106716;28;20187;-62
2022/10/30 10:45:20;;;;;;;1.10;1.07;;;;;;;24.40;32.62;95606.63;5091780;28;20190;-65
2022/10/30 10:47:56;;;;;;;3.13;1.93;;;;;;;23.99;32.64;95610.78;5098081;28;20255;-61
2022/10/30 10:50:33;;;;;;;1.70;1.60;;;;;;;24.22;32.86;95600.59;5092249;28;20633;-63
2022/10/30 10:53:06;;;;;;;20.80;2.03;;;;;;;24.17;33.56;95592.75;5091477;28;20221;-62
2022/10/30 10:55:36;;;;;;;1.27;1.17;;;;;;;23.89;32.94;95603.09;5090115;28;20261;-63
2022/10/30 10:58:30;;;;;;;2.83;2.20;;;;;;;24.19;31.86;95590.53;5089577;28;20287;-63
2022/10/30 11:00:58;;;;;;;14.73;3.93;;;;;;;24.40;32.48;95588.66;5090777;28;20670;-63
2022/10/30 11:03:48;;;;;;;1.43;1.33;;;;;;;24.43;32.09;95593.41;5094453;27;20877;-63
2022/10/30 11:06:32;;;;;;;1.07;0.97;;;;;;;24.59;31.66;95577.50;5088306;28;20689;-62
2022/10/30 11:09:18;;;;;;;1.80;0.80;;;;;;;24.67;31.41;95569.38;5094285;28;20282;-65
2022/10/30 11:11:47;;;;;;;0.87;0.60;;;;;;;24.35;31.19;95578.16;5094129;28;20619;-62
2022/10/30 11:14:17;;;;;;;0.97;0.97;;;;;;;24.53;30.93;95547.44;5110230;28;20305;-63
2022/10/30 11:16:50;;;;;;;0.67;0.67;;;;;;;24.83;30.16;95567.72;5109723;28;20190;-62
2022/10/30 11:19:18;;;;;;;0.70;0.70;;;;;;;24.49;31.98;95562.59;5109669;27;20592;-63
2022/10/30 11:21:50;;;;;;;4.87;1.50;;;;;;;24.82;31.20;95555.44;5110399;28;20178;-63
2022/10/30 11:24:27;;;;;;;0.83;0.60;;;;;;;25.24;30.12;95555.31;5097117;28;20195;-64
2022/10/30 11:27:19;;;;;;;0.70;0.63;;;;;;;25.56;30.23;95546.50;5097776;28;20196;-65
2022/10/30 11:30:00;;;;;;;1.13;1.03;;;;;;;25.33;29.94;95542.63;5105789;28;20210;-65
2022/10/30 11:32:31;;;;;;;2.00;1.30;;;;;;;25.55;30.06;95534.16;5092362;28;20293;-62
2022/10/30 11:35:06;;;;;;;0.57;0.57;;;;;;;25.93;28.10;95529.25;5097636;28;20249;-63
2022/10/30 11:37:36;;;;;;;0.60;0.60;;;;;;;25.80;28.07;95527.72;5103226;28;20658;-64
2022/10/30 11:40:15;;;;;;;3.50;0.77;;;;;;;26.08;27.65;95525.91;5111522;28;20282;-64
2022/10/30 11:42:46;;;;;;;0.40;0.40;;;;;;;26.78;27.00;95517.28;5111892;27;20232;-62
2022/10/30 11:45:38;;;;;;;0.87;0.87;;;;;;;26.68;26.38;95517.75;5097188;28;20228;-64
2022/10/30 11:48:17;;;;;;;0.53;0.40;;;;;;;27.10;26.21;95509.28;5103383;28;20233;-64
2022/10/30 11:50:48;;;;;;;0.40;0.40;;;;;;;27.03;26.66;95505.25;5090850;28;20194;-63
2022/10/30 11:53:29;;;;;;;0.60;0.60;;;;;;;27.56;25.53;95503.16;5097122;28;20217;-63
2022/10/30 11:55:57;;;;;;;0.30;0.30;;;;;;;26.88;25.98;95500.63;5106257;28;20658;-63
2022/10/30 11:58:31;;;;;;;0.40;0.40;;;;;;;27.84;25.73;95499.25;5102970;28;20737;-64
2022/10/30 12:01:21;;;;;;;0.80;0.80;;;;;;;28.45;24.47;95495.97;5106482;27;20226;-63